createdAt,value
2023-03-07T00:01:26.589Z,11.77
2023-03-07T00:03:55.337Z,12.27
2023-03-07T00:06:24.460Z,10.52
2023-03-07T00:08:54.205Z,11.50
2023-03-07T00:11:24.200Z,11.40
2023-03-07T00:13:53.288Z,11.13
2023-03-07T00:16:23.815Z,10.57
2023-03-07T00:18:52.612Z,11.52
2023-03-07T00:21:23.769Z,10.63
2023-03-07T00:23:54.173Z,11.73
2023-03-07T00:26:26.279Z,12.27
2023-03-07T00:28:55.878Z,13.82
2023-03-07T00:31:27.760Z,11.98
2023-03-07T00:34:00.116Z,12.05
2023-03-07T00:36:29.748Z,12.27
2023-03-07T00:38:59.582Z,11.65
2023-03-07T00:41:31.261Z,11.77
2023-03-07T00:44:01.270Z,12.82
2023-03-07T00:46:30.334Z,21.98
2023-03-07T00:48:59.804Z,14.90
2023-03-07T00:51:29.135Z,13.07
2023-03-07T00:53:59.533Z,17.05
2023-03-07T00:56:35.550Z,19.00
2023-03-07T00:59:08.581Z,21.92
2023-03-07T01:01:37.717Z,19.15
2023-03-07T01:04:06.615Z,13.85
2023-03-07T01:06:35.856Z,12.57
2023-03-07T01:09:07.426Z,11.40
2023-03-07T01:11:38.568Z,12.10
2023-03-07T01:14:08.263Z,11.43
2023-03-07T01:16:38.915Z,11.25
2023-03-07T01:19:12.754Z,10.75
2023-03-07T01:21:42.819Z,10.93
2023-03-07T01:24:15.472Z,11.27
2023-03-07T01:26:46.647Z,11.27
2023-03-07T01:29:17.775Z,10.77
2023-03-07T01:31:46.596Z,10.65
2023-03-07T01:34:17.465Z,10.50
2023-03-07T01:36:46.076Z,10.38
2023-03-07T01:39:17.141Z,11.20
2023-03-07T01:41:47.677Z,11.30
2023-03-07T01:44:18.992Z,10.80
2023-03-07T01:46:50.462Z,10.23
2023-03-07T01:49:32.786Z,10.80
2023-03-07T01:52:06.781Z,11.15
2023-03-07T01:54:39.874Z,11.48
2023-03-07T01:57:10.949Z,10.52
2023-03-07T01:59:44.694Z,11.27
2023-03-07T02:02:18.532Z,11.20
2023-03-07T02:04:52.575Z,11.68
2023-03-07T02:07:23.641Z,10.52
2023-03-07T02:09:54.230Z,10.65
2023-03-07T02:12:24.284Z,12.98
2023-03-07T02:14:53.831Z,12.60
2023-03-07T02:17:22.595Z,11.90
2023-03-07T02:20:05.340Z,12.85
2023-03-07T02:22:34.077Z,12.90
2023-03-07T02:25:07.799Z,12.73
2023-03-07T02:27:40.790Z,12.05
2023-03-07T02:30:13.214Z,13.68
2023-03-07T02:32:43.233Z,12.82
2023-03-07T02:35:19.000Z,12.25
2023-03-07T02:37:51.618Z,12.18
2023-03-07T02:40:24.466Z,13.13
2023-03-07T02:42:59.504Z,13.02
2023-03-07T02:45:28.335Z,14.05
2023-03-07T02:47:56.803Z,12.82
2023-03-07T02:50:25.600Z,13.90
2023-03-07T02:52:54.320Z,14.25
2023-03-07T02:55:23.287Z,15.10
2023-03-07T02:57:53.849Z,13.68
2023-03-07T03:00:23.558Z,16.08
2023-03-07T03:02:52.535Z,15.05
2023-03-07T03:05:22.089Z,15.70
2023-03-07T03:07:50.775Z,15.65
2023-03-07T03:10:19.533Z,16.75
2023-03-07T03:12:48.180Z,16.83
2023-03-07T03:15:18.653Z,16.90
2023-03-07T03:17:47.365Z,17.30
2023-03-07T03:20:17.141Z,16.40
2023-03-07T03:22:45.613Z,17.80
2023-03-07T03:25:16.388Z,17.75
2023-03-07T03:27:46.275Z,16.70
2023-03-07T03:30:18.351Z,17.75
2023-03-07T03:32:47.737Z,17.45
2023-03-07T03:35:17.043Z,17.33
2023-03-07T03:37:45.853Z,17.42
2023-03-07T03:40:17.659Z,18.13
2023-03-07T03:42:47.094Z,17.35
2023-03-07T03:45:17.494Z,18.70
2023-03-07T03:47:48.690Z,16.88
2023-03-07T03:50:17.916Z,18.35
2023-03-07T03:52:46.573Z,17.92
2023-03-07T03:55:15.820Z,15.38
2023-03-07T03:57:44.369Z,17.73
2023-03-07T04:00:16.105Z,18.25
2023-03-07T04:02:46.382Z,16.90
2023-03-07T04:05:15.892Z,18.58
2023-03-07T04:07:57.491Z,18.73
2023-03-07T04:10:25.747Z,18.40
2023-03-07T04:12:54.017Z,19.27
2023-03-07T04:15:22.237Z,17.02
2023-03-07T04:17:52.076Z,18.63
2023-03-07T04:20:21.673Z,17.98
2023-03-07T04:22:50.214Z,17.67
2023-03-07T04:25:18.539Z,19.45
2023-03-07T04:27:46.737Z,19.10
2023-03-07T04:30:15.202Z,18.90
2023-03-07T04:32:43.601Z,19.27
2023-03-07T04:35:13.256Z,18.77
2023-03-07T04:37:41.464Z,18.98
2023-03-07T04:40:10.804Z,20.05
2023-03-07T04:42:39.067Z,18.10
2023-03-07T04:45:08.857Z,18.73
2023-03-07T04:47:37.134Z,19.60
2023-03-07T04:50:05.934Z,19.23
2023-03-07T04:52:35.548Z,18.45
2023-03-07T04:55:04.048Z,17.55
2023-03-07T04:57:32.249Z,19.27
2023-03-07T05:00:00.517Z,18.30
2023-03-07T05:02:28.720Z,18.38
2023-03-07T05:04:56.988Z,18.55
2023-03-07T05:07:25.348Z,19.35
2023-03-07T05:09:54.935Z,18.42
2023-03-07T05:12:26.622Z,18.33
2023-03-07T05:14:54.892Z,18.20
2023-03-07T05:17:23.173Z,20.10
2023-03-07T05:19:51.553Z,18.02
2023-03-07T05:22:19.882Z,18.70
2023-03-07T05:24:48.137Z,18.30
2023-03-07T05:27:17.837Z,21.23
2023-03-07T05:29:46.280Z,18.05
2023-03-07T05:32:15.469Z,19.27
2023-03-07T05:34:45.197Z,18.88
2023-03-07T05:37:13.481Z,18.60
2023-03-07T05:39:41.755Z,18.00
2023-03-07T05:42:09.986Z,18.15
2023-03-07T05:44:39.726Z,18.65
2023-03-07T05:47:08.004Z,17.20
2023-03-07T05:49:36.269Z,18.77
2023-03-07T05:52:04.711Z,17.60
2023-03-07T05:54:32.930Z,18.30
2023-03-07T05:57:01.169Z,17.52
2023-03-07T05:59:29.376Z,18.27
2023-03-07T06:01:59.010Z,16.10
2023-03-07T06:04:27.380Z,16.85
2023-03-07T06:06:55.688Z,15.10
2023-03-07T06:09:25.921Z,17.50
2023-03-07T06:11:54.174Z,16.40
2023-03-07T06:14:22.441Z,17.13
2023-03-07T06:16:50.770Z,15.70
2023-03-07T06:19:20.378Z,17.05
2023-03-07T06:21:48.560Z,15.90
2023-03-07T06:24:16.795Z,14.73
2023-03-07T06:26:45.125Z,14.80
2023-03-07T06:29:13.402Z,15.23
2023-03-07T06:31:41.690Z,15.13
2023-03-07T06:34:10.142Z,18.85
2023-03-07T06:36:41.216Z,16.38
2023-03-07T06:39:09.493Z,15.70
2023-03-07T06:41:37.691Z,13.15
2023-03-07T06:44:06.088Z,13.35
2023-03-07T06:46:34.396Z,14.43
2023-03-07T06:49:02.682Z,15.85
2023-03-07T06:51:30.904Z,15.13
2023-03-07T06:54:00.529Z,15.15
2023-03-07T06:56:30.325Z,14.68
2023-03-07T06:58:58.948Z,18.02
2023-03-07T07:01:27.152Z,18.38
2023-03-07T07:03:55.350Z,15.82
2023-03-07T07:06:23.643Z,14.95
2023-03-07T07:08:56.319Z,12.27
2023-03-07T07:11:26.727Z,14.55
2023-03-07T07:13:54.997Z,15.88
2023-03-07T07:16:23.299Z,13.07
2023-03-07T07:18:53.045Z,12.70
2023-03-07T07:21:21.379Z,14.75
2023-03-07T07:23:49.599Z,15.80
2023-03-07T07:26:17.816Z,15.77
2023-03-07T07:28:47.464Z,14.65
2023-03-07T07:31:16.037Z,16.20
2023-03-07T07:33:46.377Z,18.55
2023-03-07T07:36:14.581Z,20.30
2023-03-07T07:38:42.808Z,14.95
2023-03-07T07:41:11.041Z,17.40
2023-03-07T07:43:39.381Z,16.52
2023-03-07T07:46:09.131Z,15.95
2023-03-07T07:48:37.396Z,16.55
2023-03-07T07:51:06.436Z,15.80
2023-03-07T07:53:35.876Z,16.20
2023-03-07T07:56:04.156Z,14.45
2023-03-07T07:58:32.347Z,13.57
2023-03-07T08:01:00.610Z,14.70
2023-03-07T08:03:30.205Z,15.57
2023-03-07T08:05:58.469Z,14.48
2023-03-07T08:08:26.713Z,15.50
2023-03-07T08:10:54.926Z,14.20
2023-03-07T08:13:23.401Z,14.85
2023-03-07T08:15:51.641Z,14.40
2023-03-07T08:18:19.878Z,14.43
2023-03-07T08:20:49.511Z,13.88
2023-03-07T08:23:18.010Z,14.55
2023-03-07T08:25:46.321Z,14.73
2023-03-07T08:28:14.531Z,15.13
2023-03-07T08:30:42.800Z,15.45
2023-03-07T08:33:11.010Z,16.70
2023-03-07T08:35:40.117Z,14.80
2023-03-07T08:38:10.274Z,15.48
2023-03-07T08:40:38.512Z,13.48
2023-03-07T08:43:07.982Z,13.48
2023-03-07T08:45:36.228Z,13.75
2023-03-07T08:48:04.597Z,14.88
2023-03-07T08:50:32.828Z,14.40
2023-03-07T08:53:01.049Z,13.57
2023-03-07T08:55:36.817Z,12.85
2023-03-07T08:58:05.010Z,12.45
2023-03-07T09:00:33.588Z,13.80
2023-03-07T09:03:01.814Z,13.93
2023-03-07T09:05:30.276Z,13.57
2023-03-07T09:07:58.495Z,13.85
2023-03-07T09:10:27.365Z,13.30
2023-03-07T09:12:56.954Z,13.10
2023-03-07T09:15:25.596Z,13.80
2023-03-07T09:17:53.968Z,14.23
2023-03-07T09:20:22.320Z,13.30
2023-03-07T09:22:51.716Z,13.60
2023-03-07T09:25:20.060Z,13.48
2023-03-07T09:27:49.557Z,13.15
2023-03-07T09:30:20.297Z,14.20
2023-03-07T09:32:48.671Z,14.55
2023-03-07T09:35:17.028Z,12.35
2023-03-07T09:37:45.265Z,13.60
2023-03-07T09:40:19.926Z,14.20
2023-03-07T09:42:55.982Z,14.52
2023-03-07T09:45:38.918Z,12.85
2023-03-07T09:48:49.487Z,13.65
2023-03-07T09:51:22.523Z,13.77
2023-03-07T09:53:55.833Z,13.60
2023-03-07T09:56:30.664Z,14.90
2023-03-07T09:59:13.734Z,14.27
2023-03-07T10:01:51.720Z,13.23
2023-03-07T10:04:27.876Z,13.23
2023-03-07T10:06:59.373Z,12.48
2023-03-07T10:09:29.170Z,12.15
2023-03-07T10:12:20.219Z,13.10
2023-03-07T10:15:07.908Z,13.32
2023-03-07T10:17:54.355Z,12.75
2023-03-07T10:20:31.705Z,12.38
2023-03-07T10:23:11.103Z,11.77
2023-03-07T10:25:47.212Z,12.20
2023-03-07T10:28:20.213Z,12.40
2023-03-07T10:30:49.768Z,11.60
2023-03-07T10:33:21.433Z,11.40
2023-03-07T10:35:55.030Z,11.45
2023-03-07T10:38:31.608Z,12.85
2023-03-07T10:41:03.922Z,20.02
2023-03-07T10:43:34.090Z,14.90
2023-03-07T10:46:23.936Z,11.10
2023-03-07T10:48:57.038Z,12.48
2023-03-07T10:51:39.008Z,11.27
2023-03-07T10:54:15.412Z,11.15
2023-03-07T10:56:51.939Z,13.43
2023-03-07T10:59:26.840Z,11.68
2023-03-07T11:01:58.058Z,11.00
2023-03-07T11:04:30.245Z,11.13
2023-03-07T11:07:00.622Z,11.52
2023-03-07T11:09:30.439Z,13.13
2023-03-07T11:12:00.056Z,12.07
2023-03-07T11:14:33.498Z,9.73
2023-03-07T11:17:03.379Z,10.43
2023-03-07T11:19:39.268Z,10.10
2023-03-07T11:22:24.807Z,11.07
2023-03-07T11:24:57.800Z,11.93
2023-03-07T11:27:37.777Z,10.90
2023-03-07T11:30:18.192Z,9.93
2023-03-07T11:32:53.037Z,9.85
2023-03-07T11:35:31.223Z,9.75
2023-03-07T11:38:08.843Z,10.35
2023-03-07T11:40:43.409Z,9.30
2023-03-07T11:43:21.784Z,9.68
2023-03-07T11:45:56.629Z,10.80
2023-03-07T11:48:40.625Z,12.52
2023-03-07T11:51:28.505Z,10.00
2023-03-07T11:54:08.913Z,10.85
2023-03-07T11:56:40.852Z,10.43
2023-03-07T12:00:01.624Z,9.18
2023-03-07T12:02:50.682Z,11.10
2023-03-07T12:05:34.103Z,10.38
2023-03-07T12:08:29.840Z,9.10
2023-03-07T12:11:08.799Z,9.45
2023-03-07T12:13:46.774Z,10.02
2023-03-07T12:16:27.044Z,10.07
2023-03-07T12:19:21.092Z,10.63
2023-03-07T12:22:05.349Z,9.95
2023-03-07T12:24:39.655Z,11.10
2023-03-07T12:27:14.108Z,10.32
2023-03-07T12:29:47.335Z,9.40
2023-03-07T12:32:19.871Z,9.40
2023-03-07T12:34:58.113Z,9.32
2023-03-07T12:37:31.988Z,9.80
2023-03-07T12:40:04.237Z,10.15
2023-03-07T12:42:39.602Z,9.95
2023-03-07T12:45:12.516Z,9.50
2023-03-07T12:47:57.039Z,8.27
2023-03-07T12:50:31.357Z,8.70
2023-03-07T12:53:03.846Z,8.32
2023-03-07T12:55:39.546Z,8.85
2023-03-07T12:58:14.389Z,7.97
2023-03-07T13:00:49.342Z,8.00
2023-03-07T13:03:24.643Z,12.02
2023-03-07T13:05:53.187Z,9.93
2023-03-07T13:08:24.597Z,8.75
2023-03-07T13:10:54.641Z,10.30
2023-03-07T13:13:58.457Z,36.72
2023-03-07T13:16:42.473Z,7.68
2023-03-07T13:19:43.825Z,10.48
2023-03-07T13:22:49.394Z,22.75
2023-03-07T13:25:57.420Z,9.43
2023-03-07T13:28:53.558Z,13.23
2023-03-07T13:31:45.592Z,7.85
2023-03-07T13:34:51.602Z,15.95
2023-03-07T13:37:54.335Z,7.50
2023-03-07T13:40:58.978Z,7.03
2023-03-07T13:44:03.165Z,6.65
2023-03-07T13:46:49.303Z,7.28
2023-03-07T13:49:45.836Z,7.30
2023-03-07T13:52:38.674Z,5.70
2023-03-07T13:55:24.664Z,5.97
2023-03-07T13:57:53.425Z,7.35
2023-03-07T14:00:32.795Z,7.32
2023-03-07T14:03:02.149Z,10.00
2023-03-07T14:05:33.158Z,8.25
2023-03-07T14:08:03.203Z,6.75
2023-03-07T14:10:32.817Z,8.90
2023-03-07T14:13:35.378Z,6.80
2023-03-07T14:16:26.570Z,6.43
2023-03-07T14:19:04.566Z,7.15
2023-03-07T14:21:46.260Z,6.93
2023-03-07T14:24:37.957Z,9.32
2023-03-07T14:27:12.148Z,6.00
2023-03-07T14:29:56.927Z,8.15
2023-03-07T14:32:30.080Z,5.90
2023-03-07T14:34:59.519Z,8.18
2023-03-07T14:37:29.474Z,9.20
2023-03-07T14:40:15.017Z,5.82
2023-03-07T14:42:49.232Z,6.53
2023-03-07T14:45:28.224Z,7.53
2023-03-07T14:48:16.398Z,12.40
2023-03-07T14:50:45.766Z,8.05
2023-03-07T14:53:19.631Z,9.20
2023-03-07T14:55:51.261Z,7.88
2023-03-07T14:58:23.120Z,8.25
2023-03-07T15:00:59.674Z,6.95
2023-03-07T15:03:35.076Z,7.07
2023-03-07T15:06:04.440Z,6.45
2023-03-07T15:08:35.231Z,5.80
2023-03-07T15:11:07.713Z,5.80
2023-03-07T15:13:39.691Z,6.90
2023-03-07T15:16:13.609Z,5.40
2023-03-07T15:18:55.884Z,6.75
2023-03-07T15:21:27.064Z,5.35
2023-03-07T15:23:57.895Z,5.57
2023-03-07T15:26:28.416Z,5.32
2023-03-07T15:29:02.266Z,6.72
2023-03-07T15:31:32.867Z,5.47
2023-03-07T15:34:21.423Z,7.00
2023-03-07T15:36:49.660Z,5.97
2023-03-07T15:39:31.302Z,5.72
2023-03-07T15:42:04.848Z,4.70
2023-03-07T15:44:33.631Z,6.80
2023-03-07T15:47:07.007Z,6.80
2023-03-07T15:49:43.300Z,6.85
2023-03-07T15:52:28.252Z,6.13
2023-03-07T15:54:58.547Z,9.80
2023-03-07T15:57:29.366Z,6.80
2023-03-07T16:00:00.465Z,5.63
2023-03-07T16:02:46.683Z,5.28
2023-03-07T16:05:37.363Z,5.60
2023-03-07T16:08:13.718Z,4.00
2023-03-07T16:10:54.837Z,4.30
2023-03-07T16:13:26.283Z,3.70
2023-03-07T16:16:06.989Z,3.33
2023-03-07T16:18:35.888Z,3.72
2023-03-07T16:21:05.791Z,4.00
2023-03-07T16:23:34.165Z,3.80
2023-03-07T16:26:07.070Z,3.08
2023-03-07T16:28:36.042Z,3.13
2023-03-07T16:31:04.319Z,5.05
2023-03-07T16:33:32.538Z,6.22
2023-03-07T16:36:00.871Z,5.93
2023-03-07T16:38:30.517Z,6.57
2023-03-07T16:40:59.445Z,6.93
2023-03-07T16:43:35.473Z,5.90
2023-03-07T16:46:06.608Z,5.75
2023-03-07T16:48:38.319Z,5.07
2023-03-07T16:51:07.488Z,6.18
2023-03-07T16:53:37.114Z,4.38
2023-03-07T16:56:05.575Z,5.53
2023-03-07T16:58:37.182Z,8.10
2023-03-07T17:01:06.416Z,17.63
2023-03-07T17:03:40.714Z,9.05
2023-03-07T17:06:13.509Z,8.40
2023-03-07T17:08:43.137Z,9.20
2023-03-07T17:11:19.960Z,14.15
2023-03-07T17:13:58.424Z,7.53
2023-03-07T17:16:28.138Z,6.78
2023-03-07T17:18:59.466Z,8.20
2023-03-07T17:21:32.293Z,6.07
2023-03-07T17:24:01.998Z,5.45
2023-03-07T17:26:36.554Z,5.70
2023-03-07T17:29:09.881Z,5.10
2023-03-07T17:31:38.165Z,4.97
2023-03-07T17:34:06.396Z,6.00
2023-03-07T17:36:34.979Z,5.55
2023-03-07T17:39:04.812Z,5.18
2023-03-07T17:41:33.038Z,5.40
2023-03-07T17:44:10.222Z,6.63
2023-03-07T17:46:38.489Z,6.65
2023-03-07T17:49:06.906Z,5.95
2023-03-07T17:51:35.230Z,6.85
2023-03-07T17:54:06.794Z,6.20
2023-03-07T17:56:35.060Z,5.50
2023-03-07T17:59:06.456Z,5.70
2023-03-07T18:01:36.469Z,5.20
2023-03-07T18:04:06.350Z,6.03
2023-03-07T18:06:36.739Z,6.05
2023-03-07T18:09:07.192Z,5.22
2023-03-07T18:11:35.679Z,5.93
2023-03-07T18:14:04.009Z,5.38
2023-03-07T18:16:32.778Z,5.57
2023-03-07T18:19:05.708Z,4.80
2023-03-07T18:21:35.146Z,4.80
2023-03-07T18:24:03.539Z,4.95
2023-03-07T18:26:33.178Z,5.18
2023-03-07T18:29:02.212Z,4.85
2023-03-07T18:31:30.604Z,5.80
2023-03-07T18:34:00.853Z,5.20
2023-03-07T18:36:29.069Z,4.15
2023-03-07T18:39:00.019Z,2.50
2023-03-07T18:41:29.104Z,2.38
2023-03-07T18:44:00.585Z,1.77
2023-03-07T18:46:33.142Z,2.10
2023-03-07T18:49:02.168Z,2.00
2023-03-07T18:51:30.550Z,1.60
2023-03-07T18:54:08.971Z,1.38
2023-03-07T18:56:37.234Z,1.55
2023-03-07T18:59:10.619Z,1.40
2023-03-07T19:01:41.972Z,2.10
2023-03-07T19:04:11.629Z,1.70
2023-03-07T19:06:42.074Z,1.73
2023-03-07T19:09:15.908Z,1.50
2023-03-07T19:11:50.443Z,1.85
2023-03-07T19:14:23.161Z,2.05
2023-03-07T19:16:51.709Z,2.40
2023-03-07T19:19:20.146Z,2.42
2023-03-07T19:21:48.412Z,3.85
2023-03-07T19:24:16.649Z,2.58
2023-03-07T19:26:44.879Z,3.08
2023-03-07T19:29:13.272Z,2.75
2023-03-07T19:31:44.594Z,2.97
2023-03-07T19:34:13.634Z,3.50
2023-03-07T19:36:51.251Z,3.60
2023-03-07T19:39:21.312Z,3.30
2023-03-07T19:41:52.293Z,2.95
2023-03-07T19:44:20.673Z,3.10
2023-03-07T19:46:50.357Z,3.15
2023-03-07T19:49:23.241Z,3.65
2023-03-07T19:51:54.950Z,3.00
2023-03-07T19:54:23.269Z,3.05
2023-03-07T19:57:06.874Z,3.08
2023-03-07T19:59:41.268Z,2.67
2023-03-07T20:02:13.950Z,2.58
2023-03-07T20:04:53.059Z,2.38
2023-03-07T20:07:21.555Z,1.70
2023-03-07T20:09:57.886Z,1.70
2023-03-07T20:12:26.318Z,1.60
2023-03-07T20:14:54.678Z,1.90
2023-03-07T20:17:24.639Z,2.25
2023-03-07T20:19:53.494Z,1.50
2023-03-07T20:22:24.487Z,1.50
2023-03-07T20:24:53.147Z,1.70
2023-03-07T20:27:25.056Z,1.65
2023-03-07T20:29:57.573Z,1.30
2023-03-07T20:32:36.541Z,1.50
2023-03-07T20:35:05.595Z,1.55
2023-03-07T20:37:36.016Z,1.60
2023-03-07T20:40:08.354Z,1.42
2023-03-07T20:42:42.053Z,1.50
2023-03-07T20:45:11.839Z,1.50
2023-03-07T20:47:41.597Z,1.50
2023-03-07T20:50:11.541Z,1.40
2023-03-07T20:52:39.903Z,1.20
2023-03-07T20:55:12.027Z,1.25
2023-03-07T20:57:41.177Z,1.20
2023-03-07T21:00:10.844Z,1.50
2023-03-07T21:02:39.720Z,1.85
2023-03-07T21:05:10.054Z,1.48
2023-03-07T21:07:38.334Z,1.40
2023-03-07T21:10:07.057Z,1.45
2023-03-07T21:12:36.207Z,1.50
2023-03-07T21:15:04.673Z,1.65
2023-03-07T21:17:36.185Z,1.65
2023-03-07T21:20:09.590Z,1.88
2023-03-07T21:22:37.786Z,1.55
2023-03-07T21:25:06.803Z,1.85
2023-03-07T21:27:35.093Z,1.80
2023-03-07T21:30:04.537Z,1.80
2023-03-07T21:32:32.824Z,1.80
2023-03-07T21:35:04.281Z,1.80
2023-03-07T21:37:35.322Z,1.90
2023-03-07T21:40:05.253Z,1.70
2023-03-07T21:42:34.369Z,1.98
2023-03-07T21:45:02.625Z,1.70
2023-03-07T21:47:30.999Z,2.17
2023-03-07T21:49:59.254Z,2.20
2023-03-07T21:52:29.140Z,2.08
2023-03-07T21:54:58.789Z,1.77
2023-03-07T21:57:29.242Z,2.60
2023-03-07T21:59:57.467Z,4.20
2023-03-07T22:02:25.744Z,2.53
2023-03-07T22:04:53.973Z,5.25
2023-03-07T22:07:22.228Z,9.75
2023-03-07T22:09:50.455Z,7.13
2023-03-07T22:12:20.076Z,4.25
2023-03-07T22:14:51.628Z,2.20
2023-03-07T22:17:19.853Z,3.03
2023-03-07T22:19:48.078Z,2.47
2023-03-07T22:22:16.297Z,2.85
2023-03-07T22:24:44.554Z,2.60
2023-03-07T22:27:12.891Z,1.90
2023-03-07T22:29:42.572Z,2.08
2023-03-07T22:32:10.930Z,1.98
2023-03-07T22:34:39.360Z,2.10
2023-03-07T22:37:07.625Z,1.80
2023-03-07T22:39:36.087Z,1.55
2023-03-07T22:42:04.444Z,1.42
2023-03-07T22:44:32.677Z,1.75
2023-03-07T22:47:02.336Z,1.35
2023-03-07T22:49:33.868Z,1.98
2023-03-07T22:52:02.181Z,1.55
2023-03-07T22:54:30.487Z,1.65
2023-03-07T22:56:58.825Z,1.85
2023-03-07T22:59:27.098Z,2.10
2023-03-07T23:01:55.352Z,1.75
2023-03-07T23:04:25.126Z,1.80
2023-03-07T23:06:53.358Z,2.20
2023-03-07T23:09:21.706Z,1.90
2023-03-07T23:11:49.978Z,2.20
2023-03-07T23:14:18.265Z,2.08
2023-03-07T23:16:46.516Z,1.90
2023-03-07T23:19:14.770Z,1.85
2023-03-07T23:21:44.518Z,2.40
2023-03-07T23:24:15.243Z,1.88
2023-03-07T23:26:43.503Z,1.95
2023-03-07T23:29:11.917Z,1.80
2023-03-07T23:31:42.802Z,2.55
2023-03-07T23:34:16.213Z,2.83
2023-03-07T23:36:46.076Z,1.85
2023-03-07T23:39:17.340Z,2.15
2023-03-07T23:41:46.215Z,1.98
2023-03-07T23:44:14.496Z,2.42
2023-03-07T23:46:42.757Z,2.00
2023-03-07T23:49:11.646Z,2.00
2023-03-07T23:51:39.962Z,2.30
2023-03-07T23:54:09.680Z,2.05
2023-03-07T23:56:37.960Z,2.22
2023-03-07T23:59:06.398Z,1.92
